createdAt,value
2022-11-08T00:01:35.326Z,1.92
2022-11-08T00:04:06.983Z,1.80
2022-11-08T00:06:51.984Z,2.00
2022-11-08T00:09:36.998Z,1.98
2022-11-08T00:12:22.682Z,2.35
2022-11-08T00:14:49.305Z,2.08
2022-11-08T00:17:17.249Z,1.98
2022-11-08T00:19:44.237Z,1.80
2022-11-08T00:22:15.176Z,2.05
2022-11-08T00:24:42.037Z,2.42
2022-11-08T00:27:11.052Z,1.88
2022-11-08T00:29:37.552Z,2.05
2022-11-08T00:32:05.613Z,2.15
2022-11-08T00:34:35.364Z,2.15
2022-11-08T00:37:02.356Z,2.40
2022-11-08T00:39:28.904Z,2.40
2022-11-08T00:41:55.306Z,2.05
2022-11-08T00:44:22.150Z,1.92
2022-11-08T00:46:48.922Z,2.28
2022-11-08T00:49:15.273Z,2.30
2022-11-08T00:51:41.659Z,2.00
2022-11-08T00:54:08.516Z,1.88
2022-11-08T00:56:35.622Z,2.30
2022-11-08T00:59:02.081Z,2.22
2022-11-08T01:01:28.616Z,2.63
2022-11-08T01:03:55.140Z,2.20
2022-11-08T01:06:23.448Z,2.13
2022-11-08T01:08:50.047Z,2.70
2022-11-08T01:11:19.147Z,2.45
2022-11-08T01:13:46.517Z,2.22
2022-11-08T01:16:16.811Z,2.03
2022-11-08T01:18:44.400Z,2.42
2022-11-08T01:21:11.851Z,2.10
2022-11-08T01:23:38.389Z,2.40
2022-11-08T01:26:07.765Z,2.47
2022-11-08T01:28:34.842Z,2.22
2022-11-08T01:31:16.788Z,2.40
2022-11-08T01:33:48.431Z,2.08
2022-11-08T01:36:19.870Z,2.50
2022-11-08T01:38:46.290Z,2.20
2022-11-08T01:41:14.734Z,2.03
2022-11-08T01:43:45.570Z,2.30
2022-11-08T01:46:18.192Z,2.33
2022-11-08T01:48:59.513Z,2.50
2022-11-08T01:52:08.380Z,2.10
2022-11-08T01:54:46.651Z,1.73
2022-11-08T01:57:16.836Z,2.28
2022-11-08T01:59:44.823Z,2.40
2022-11-08T02:02:11.836Z,2.17
2022-11-08T02:04:39.317Z,2.55
2022-11-08T02:07:06.767Z,2.00
2022-11-08T02:09:34.964Z,2.33
2022-11-08T02:12:01.921Z,3.42
2022-11-08T02:14:28.479Z,2.00
2022-11-08T02:16:54.985Z,2.58
2022-11-08T02:19:29.933Z,2.75
2022-11-08T02:21:58.663Z,2.42
2022-11-08T02:24:25.031Z,2.20
2022-11-08T02:26:53.043Z,2.28
2022-11-08T02:29:27.568Z,2.03
2022-11-08T02:31:54.848Z,2.58
2022-11-08T02:34:25.089Z,2.38
2022-11-08T02:36:51.530Z,2.08
2022-11-08T02:39:18.109Z,2.67
2022-11-08T02:41:44.490Z,2.42
2022-11-08T02:44:10.890Z,2.40
2022-11-08T02:46:37.303Z,2.50
2022-11-08T02:49:03.799Z,2.20
2022-11-08T02:51:30.365Z,2.20
2022-11-08T02:53:56.764Z,2.05
2022-11-08T02:56:23.358Z,2.20
2022-11-08T02:58:49.855Z,2.30
2022-11-08T03:01:16.379Z,2.13
2022-11-08T03:03:42.832Z,2.83
2022-11-08T03:06:09.315Z,2.10
2022-11-08T03:08:35.832Z,1.85
2022-11-08T03:11:02.278Z,2.63
2022-11-08T03:13:28.669Z,2.00
2022-11-08T03:15:55.134Z,2.28
2022-11-08T03:18:21.522Z,2.40
2022-11-08T03:20:47.908Z,2.53
2022-11-08T03:23:14.367Z,2.55
2022-11-08T03:25:40.753Z,2.53
2022-11-08T03:28:08.863Z,1.88
2022-11-08T03:30:36.398Z,2.00
2022-11-08T03:33:02.974Z,2.33
2022-11-08T03:35:29.554Z,1.90
2022-11-08T03:37:57.193Z,2.03
2022-11-08T03:40:24.395Z,2.10
2022-11-08T03:42:50.786Z,1.60
2022-11-08T03:45:17.452Z,2.17
2022-11-08T03:47:45.242Z,1.67
2022-11-08T03:50:13.221Z,1.88
2022-11-08T03:52:44.136Z,1.98
2022-11-08T03:55:11.488Z,1.90
2022-11-08T03:57:39.594Z,2.28
2022-11-08T04:00:07.885Z,2.00
2022-11-08T04:02:34.445Z,2.17
2022-11-08T04:05:00.936Z,1.90
2022-11-08T04:07:28.643Z,1.73
2022-11-08T04:09:55.803Z,1.83
2022-11-08T04:12:40.934Z,2.08
2022-11-08T04:15:16.205Z,2.10
2022-11-08T04:18:02.831Z,1.92
2022-11-08T04:20:47.913Z,2.28
2022-11-08T04:23:15.255Z,2.03
2022-11-08T04:25:42.144Z,1.88
2022-11-08T04:28:08.531Z,1.75
2022-11-08T04:30:35.285Z,2.10
2022-11-08T04:33:02.927Z,1.55
2022-11-08T04:35:30.235Z,2.00
2022-11-08T04:38:02.753Z,1.83
2022-11-08T04:42:56.464Z,1.75
2022-11-08T04:45:22.932Z,2.00
2022-11-08T04:47:49.449Z,1.30
2022-11-08T04:50:16.324Z,1.75
2022-11-08T04:52:42.727Z,1.58
2022-11-08T04:55:09.615Z,1.90
2022-11-08T04:57:35.983Z,1.60
2022-11-08T05:00:02.419Z,1.67
2022-11-08T05:02:28.885Z,1.73
2022-11-08T05:04:55.376Z,1.92
2022-11-08T05:07:21.782Z,1.10
2022-11-08T05:09:48.203Z,1.55
2022-11-08T05:12:14.618Z,1.90
2022-11-08T05:14:40.967Z,1.60
2022-11-08T05:17:07.350Z,1.80
2022-11-08T05:19:52.485Z,1.58
2022-11-08T05:22:37.462Z,1.63
2022-11-08T05:25:04.046Z,1.60
2022-11-08T05:27:30.439Z,2.08
2022-11-08T05:29:56.845Z,1.80
2022-11-08T05:32:23.235Z,1.70
2022-11-08T05:34:49.705Z,1.98
2022-11-08T05:37:16.110Z,1.88
2022-11-08T05:39:42.460Z,1.80
2022-11-08T05:42:08.897Z,1.88
2022-11-08T05:44:35.308Z,2.13
2022-11-08T05:47:01.716Z,1.55
2022-11-08T05:49:28.072Z,1.75
2022-11-08T05:51:54.675Z,1.90
2022-11-08T05:54:21.056Z,2.08
2022-11-08T05:56:47.422Z,1.90
2022-11-08T05:59:13.808Z,2.00
2022-11-08T06:01:40.261Z,1.88
2022-11-08T06:04:06.705Z,1.80
2022-11-08T06:06:33.269Z,3.15
2022-11-08T06:08:59.818Z,1.98
2022-11-08T06:11:27.399Z,2.05
2022-11-08T06:13:54.637Z,1.80
2022-11-08T06:16:22.161Z,1.90
2022-11-08T06:18:48.593Z,1.70
2022-11-08T06:21:17.970Z,1.77
2022-11-08T06:23:45.032Z,2.15
2022-11-08T06:26:11.592Z,2.60
2022-11-08T06:28:38.223Z,1.98
2022-11-08T06:31:05.041Z,2.10
2022-11-08T06:33:31.647Z,1.70
2022-11-08T06:35:58.360Z,2.00
2022-11-08T06:38:24.827Z,2.00
2022-11-08T06:40:51.233Z,1.70
2022-11-08T06:43:19.814Z,1.80
2022-11-08T06:45:47.151Z,1.95
2022-11-08T06:48:13.574Z,1.98
2022-11-08T06:50:39.929Z,2.00
2022-11-08T06:53:07.923Z,2.22
2022-11-08T06:55:35.497Z,2.15
2022-11-08T06:58:02.696Z,1.85
2022-11-08T07:00:29.248Z,1.90
2022-11-08T07:02:58.434Z,2.33
2022-11-08T07:05:25.517Z,1.70
2022-11-08T07:07:52.410Z,2.25
2022-11-08T07:10:20.496Z,2.10
2022-11-08T07:12:47.373Z,2.28
2022-11-08T07:15:14.715Z,2.28
2022-11-08T07:17:41.077Z,2.03
2022-11-08T07:20:09.035Z,1.92
2022-11-08T07:22:35.445Z,2.10
2022-11-08T07:25:01.880Z,1.88
2022-11-08T07:27:28.710Z,2.28
2022-11-08T07:29:55.158Z,1.88
2022-11-08T07:32:21.599Z,1.90
2022-11-08T07:34:48.002Z,2.00
2022-11-08T07:37:14.380Z,1.85
2022-11-08T07:39:41.016Z,2.30
2022-11-08T07:42:07.398Z,2.05
2022-11-08T07:44:33.842Z,2.28
2022-11-08T07:47:00.263Z,1.98
2022-11-08T07:49:26.662Z,1.70
2022-11-08T07:51:53.048Z,2.13
2022-11-08T07:54:19.401Z,1.80
2022-11-08T07:56:45.789Z,2.20
2022-11-08T07:59:12.352Z,2.10
2022-11-08T08:01:38.860Z,1.98
2022-11-08T08:04:05.455Z,2.13
2022-11-08T08:06:31.853Z,1.90
2022-11-08T08:08:58.223Z,2.00
2022-11-08T08:11:27.175Z,2.00
2022-11-08T08:13:57.339Z,2.08
2022-11-08T08:16:23.784Z,2.10
2022-11-08T08:18:55.906Z,2.10
2022-11-08T08:21:22.946Z,1.90
2022-11-08T08:23:49.336Z,2.10
2022-11-08T08:26:15.711Z,2.10
2022-11-08T08:28:42.123Z,2.47
2022-11-08T08:31:08.541Z,1.80
2022-11-08T08:33:35.107Z,2.15
2022-11-08T08:36:01.765Z,2.00
2022-11-08T08:38:28.767Z,2.15
2022-11-08T08:40:55.326Z,1.67
2022-11-08T08:43:22.334Z,2.00
2022-11-08T08:45:49.055Z,2.00
2022-11-08T08:48:15.960Z,1.88
2022-11-08T08:50:42.429Z,1.63
2022-11-08T08:53:10.317Z,1.73
2022-11-08T08:55:38.930Z,1.70
2022-11-08T08:58:05.804Z,1.75
2022-11-08T09:03:19.990Z,1.90
2022-11-08T09:05:47.468Z,1.88
2022-11-08T09:08:14.475Z,1.58
2022-11-08T09:10:41.139Z,1.67
2022-11-08T09:13:07.508Z,1.80
2022-11-08T09:15:33.973Z,1.33
2022-11-08T09:18:00.434Z,1.80
2022-11-08T09:20:26.898Z,1.80
2022-11-08T09:22:53.410Z,1.33
2022-11-08T09:25:19.809Z,1.80
2022-11-08T09:27:46.432Z,1.50
2022-11-08T09:30:13.570Z,1.60
2022-11-08T09:32:59.820Z,1.73
2022-11-08T09:35:26.488Z,1.50
2022-11-08T09:37:54.067Z,1.40
2022-11-08T09:41:05.324Z,1.35
2022-11-08T09:43:52.911Z,1.67
2022-11-08T09:46:28.653Z,1.15
2022-11-08T09:48:55.818Z,1.10
2022-11-08T09:51:24.571Z,1.90
2022-11-08T09:53:56.609Z,1.88
2022-11-08T09:56:35.054Z,1.30
2022-11-08T09:59:28.793Z,1.77
2022-11-08T10:01:55.231Z,1.50
2022-11-08T10:04:27.996Z,1.63
2022-11-08T10:07:27.520Z,1.40
2022-11-08T10:10:03.038Z,1.40
2022-11-08T10:12:57.632Z,1.33
2022-11-08T10:15:42.425Z,1.40
2022-11-08T10:18:24.086Z,1.45
2022-11-08T10:21:35.131Z,1.55
2022-11-08T10:24:32.620Z,1.40
2022-11-08T10:26:59.667Z,1.48
2022-11-08T10:29:36.360Z,1.20
2022-11-08T10:32:15.080Z,1.02
2022-11-08T10:34:48.001Z,1.65
2022-11-08T10:37:15.714Z,1.05
2022-11-08T10:39:54.182Z,1.20
2022-11-08T10:42:25.946Z,1.20
2022-11-08T10:44:52.651Z,1.00
2022-11-08T10:47:24.592Z,1.00
2022-11-08T10:49:52.256Z,1.70
2022-11-08T10:52:39.741Z,1.40
2022-11-08T10:55:08.556Z,1.20
2022-11-08T10:57:42.611Z,1.10
2022-11-08T11:00:18.625Z,0.95
2022-11-08T11:02:59.737Z,1.00
2022-11-08T11:05:30.105Z,1.10
2022-11-08T11:08:09.688Z,1.05
2022-11-08T11:10:36.846Z,1.33
2022-11-08T11:13:03.198Z,1.10
2022-11-08T11:15:39.628Z,1.00
2022-11-08T11:18:19.651Z,1.02
2022-11-08T11:21:08.404Z,1.17
2022-11-08T11:23:43.693Z,1.17
2022-11-08T11:26:29.932Z,1.20
2022-11-08T11:28:59.739Z,1.10
2022-11-08T11:31:26.136Z,1.20
2022-11-08T11:33:52.569Z,1.27
2022-11-08T11:36:20.846Z,1.08
2022-11-08T11:39:06.377Z,0.95
2022-11-08T11:41:39.882Z,1.20
2022-11-08T11:44:30.943Z,1.20
2022-11-08T11:47:29.562Z,1.25
2022-11-08T11:50:00.774Z,1.30
2022-11-08T11:52:27.665Z,1.20
2022-11-08T11:54:54.054Z,0.90
2022-11-08T11:57:52.846Z,1.30
2022-11-08T12:00:19.284Z,1.20
2022-11-08T12:03:07.960Z,1.40
2022-11-08T12:05:40.337Z,1.15
2022-11-08T12:10:58.124Z,1.17
2022-11-08T12:13:53.952Z,1.42
2022-11-08T12:16:26.053Z,1.15
2022-11-08T12:19:17.601Z,1.33
2022-11-08T12:22:02.270Z,1.13
2022-11-08T12:24:52.435Z,1.33
2022-11-08T12:27:29.887Z,1.10
2022-11-08T12:29:56.203Z,1.20
2022-11-08T12:32:40.600Z,1.20
2022-11-08T12:35:25.692Z,1.20
2022-11-08T12:38:17.205Z,1.10
2022-11-08T12:40:58.622Z,1.20
2022-11-08T12:43:54.343Z,1.27
2022-11-08T12:46:20.989Z,1.25
2022-11-08T12:49:03.864Z,1.20
2022-11-08T12:52:07.551Z,1.58
2022-11-08T12:54:40.796Z,1.20
2022-11-08T12:57:13.050Z,1.38
2022-11-08T12:59:52.268Z,1.20
2022-11-08T13:02:26.149Z,1.15
2022-11-08T13:04:57.683Z,1.42
2022-11-08T13:08:03.538Z,1.52
2022-11-08T13:10:49.607Z,1.00
2022-11-08T13:13:18.660Z,1.30
2022-11-08T13:16:07.051Z,1.13
2022-11-08T13:18:45.047Z,1.05
2022-11-08T13:21:30.102Z,1.35
2022-11-08T13:24:09.794Z,1.20
2022-11-08T13:26:44.554Z,1.25
2022-11-08T13:29:16.779Z,1.25
2022-11-08T13:32:03.537Z,1.33
2022-11-08T13:34:57.990Z,1.27
2022-11-08T13:37:55.574Z,1.40
2022-11-08T13:40:46.822Z,1.30
2022-11-08T13:43:16.185Z,1.20
2022-11-08T13:45:44.043Z,1.58
2022-11-08T13:48:26.028Z,1.10
2022-11-08T13:51:15.020Z,1.30
2022-11-08T13:53:49.745Z,1.45
2022-11-08T13:56:42.993Z,1.27
2022-11-08T13:59:30.606Z,1.23
2022-11-08T14:02:18.765Z,1.80
2022-11-08T14:04:45.744Z,1.45
2022-11-08T14:07:25.707Z,1.30
2022-11-08T14:10:25.726Z,1.50
2022-11-08T14:13:04.221Z,1.30
2022-11-08T14:15:39.819Z,1.10
2022-11-08T14:18:27.676Z,1.30
2022-11-08T14:20:54.892Z,1.20
2022-11-08T14:23:32.031Z,1.40
2022-11-08T14:26:03.670Z,1.10
2022-11-08T14:28:33.981Z,1.10
2022-11-08T14:31:03.562Z,1.13
2022-11-08T14:33:31.776Z,1.17
2022-11-08T14:36:09.277Z,1.52
2022-11-08T14:38:37.504Z,1.30
2022-11-08T14:41:06.124Z,1.40
2022-11-08T14:43:43.348Z,1.30
2022-11-08T14:46:11.864Z,1.10
2022-11-08T14:48:48.932Z,1.40
2022-11-08T14:51:15.377Z,1.23
2022-11-08T14:53:46.640Z,1.23
2022-11-08T14:56:25.125Z,1.48
2022-11-08T14:58:52.954Z,1.42
2022-11-08T15:01:22.414Z,1.27
2022-11-08T15:03:57.323Z,1.20
2022-11-08T15:06:36.341Z,1.58
2022-11-08T15:09:04.319Z,1.33
2022-11-08T15:11:34.749Z,1.23
2022-11-08T15:14:03.966Z,1.42
2022-11-08T15:16:46.769Z,1.30
2022-11-08T15:19:31.354Z,1.50
2022-11-08T15:21:59.249Z,1.55
2022-11-08T15:24:39.251Z,1.40
2022-11-08T15:27:05.637Z,1.30
2022-11-08T15:29:52.264Z,1.48
2022-11-08T15:32:20.908Z,1.63
2022-11-08T15:34:47.716Z,1.15
2022-11-08T15:37:27.804Z,1.35
2022-11-08T15:39:54.742Z,1.50
2022-11-08T15:42:21.412Z,1.35
2022-11-08T15:45:21.859Z,1.48
2022-11-08T15:47:49.372Z,1.52
2022-11-08T15:50:25.753Z,1.75
2022-11-08T15:52:55.022Z,1.52
2022-11-08T15:55:24.534Z,1.48
2022-11-08T15:57:51.411Z,1.60
2022-11-08T16:00:22.308Z,1.55
2022-11-08T16:02:48.763Z,1.70
2022-11-08T16:05:26.389Z,1.27
2022-11-08T16:07:53.335Z,2.00
2022-11-08T16:10:32.244Z,1.40
2022-11-08T16:13:01.094Z,1.70
2022-11-08T16:15:30.512Z,1.60
2022-11-08T16:17:57.077Z,1.48
2022-11-08T16:20:33.621Z,1.38
2022-11-08T16:23:02.368Z,1.90
2022-11-08T16:25:30.003Z,1.65
2022-11-08T16:27:58.639Z,1.75
2022-11-08T16:30:25.802Z,1.65
2022-11-08T16:32:52.803Z,1.73
2022-11-08T16:35:19.325Z,1.90
2022-11-08T16:37:45.804Z,2.13
2022-11-08T16:40:18.030Z,1.67
2022-11-08T16:42:46.249Z,1.60
2022-11-08T16:45:13.610Z,1.40
2022-11-08T16:47:48.145Z,1.30
2022-11-08T16:50:19.779Z,1.55
2022-11-08T16:52:46.187Z,1.63
2022-11-08T16:55:17.607Z,1.50
2022-11-08T16:57:44.552Z,1.70
2022-11-08T17:00:13.656Z,1.50
2022-11-08T17:02:44.920Z,1.50
2022-11-08T17:05:18.684Z,1.40
2022-11-08T17:07:45.178Z,1.48
2022-11-08T17:10:22.817Z,1.67
2022-11-08T17:12:49.495Z,1.50
2022-11-08T17:15:18.972Z,1.60
2022-11-08T17:17:45.947Z,1.63
2022-11-08T17:20:14.815Z,1.25
2022-11-08T17:22:41.940Z,1.33
2022-11-08T17:25:09.175Z,1.73
2022-11-08T17:27:35.622Z,1.70
2022-11-08T17:30:02.637Z,1.77
2022-11-08T17:32:29.024Z,1.40
2022-11-08T17:34:55.496Z,1.38
2022-11-08T17:37:21.953Z,1.60
2022-11-08T17:39:48.372Z,1.75
2022-11-08T17:42:15.177Z,1.60
2022-11-08T17:44:41.545Z,1.90
2022-11-08T17:47:07.931Z,1.83
2022-11-08T17:49:35.376Z,1.75
2022-11-08T17:52:04.079Z,1.27
2022-11-08T17:54:30.455Z,1.48
2022-11-08T17:56:56.860Z,1.63
2022-11-08T17:59:23.348Z,1.60
2022-11-08T18:01:50.598Z,1.50
2022-11-08T18:04:17.174Z,1.80
2022-11-08T18:06:43.650Z,2.05
2022-11-08T18:09:10.576Z,1.60
2022-11-08T18:11:36.988Z,1.58
2022-11-08T18:14:03.922Z,1.70
2022-11-08T18:16:30.369Z,2.00
2022-11-08T18:18:58.010Z,1.63
2022-11-08T18:21:24.471Z,1.65
2022-11-08T18:23:50.997Z,2.08
2022-11-08T18:26:18.295Z,1.73
2022-11-08T18:28:45.286Z,1.92
2022-11-08T18:31:14.283Z,1.85
2022-11-08T18:33:41.457Z,1.92
2022-11-08T18:36:16.353Z,1.75
2022-11-08T18:38:44.745Z,1.70
2022-11-08T18:41:16.790Z,1.70
2022-11-08T18:43:43.963Z,1.77
2022-11-08T18:46:18.867Z,1.73
2022-11-08T18:48:45.794Z,1.67
2022-11-08T18:51:15.181Z,1.60
2022-11-08T18:53:42.228Z,1.80
2022-11-08T18:56:09.169Z,1.48
2022-11-08T18:58:35.789Z,1.73
2022-11-08T19:01:02.879Z,1.80
2022-11-08T19:03:29.271Z,1.60
2022-11-08T19:05:55.759Z,1.60
2022-11-08T19:08:28.475Z,1.98
2022-11-08T19:11:00.359Z,1.48
2022-11-08T19:13:28.307Z,1.80
2022-11-08T19:16:13.460Z,1.50
2022-11-08T19:18:40.297Z,1.60
2022-11-08T19:21:09.938Z,1.50
2022-11-08T19:23:38.149Z,1.92
2022-11-08T19:26:07.663Z,1.70
2022-11-08T19:28:36.725Z,1.60
2022-11-08T19:31:03.674Z,1.80
2022-11-08T19:33:31.496Z,1.70
2022-11-08T19:36:22.031Z,1.70
2022-11-08T19:38:48.467Z,1.60
2022-11-08T19:41:20.141Z,2.05
2022-11-08T19:43:47.020Z,1.70
2022-11-08T19:46:15.841Z,1.70
2022-11-08T19:48:44.327Z,1.77
2022-11-08T19:51:16.553Z,1.52
2022-11-08T19:53:43.570Z,1.75
2022-11-08T19:56:12.530Z,1.83
2022-11-08T19:58:39.023Z,1.80
2022-11-08T20:01:10.737Z,1.70
2022-11-08T20:03:37.395Z,2.07
2022-11-08T20:06:04.000Z,1.83
2022-11-08T20:08:31.378Z,1.80
2022-11-08T20:10:57.977Z,1.85
2022-11-08T20:13:24.747Z,1.95
2022-11-08T20:15:51.201Z,2.00
2022-11-08T20:18:18.000Z,1.80
2022-11-08T20:20:45.058Z,1.80
2022-11-08T20:23:15.177Z,1.70
2022-11-08T20:25:41.559Z,1.70
2022-11-08T20:28:08.157Z,1.90
2022-11-08T20:30:35.275Z,1.52
2022-11-08T20:33:01.672Z,1.85
2022-11-08T20:35:28.108Z,1.85
2022-11-08T20:37:57.608Z,2.03
2022-11-08T20:40:24.045Z,1.70
2022-11-08T20:42:50.465Z,2.13
2022-11-08T20:45:16.935Z,1.58
2022-11-08T20:47:43.326Z,1.67
2022-11-08T20:50:10.672Z,1.73
2022-11-08T20:52:37.062Z,1.80
2022-11-08T20:55:03.516Z,1.60
2022-11-08T20:57:29.904Z,1.88
2022-11-08T20:59:56.307Z,2.10
2022-11-08T21:02:22.864Z,1.88
2022-11-08T21:04:49.333Z,1.73
2022-11-08T21:10:40.265Z,1.92
2022-11-08T21:12:48.631Z,1.90
2022-11-08T21:15:15.132Z,1.77
2022-11-08T21:17:41.517Z,1.60
2022-11-08T21:20:08.632Z,2.05
2022-11-08T21:22:34.985Z,1.90
2022-11-08T21:25:01.464Z,1.90
2022-11-08T21:27:29.973Z,2.33
2022-11-08T21:29:56.570Z,2.00
2022-11-08T21:32:22.976Z,1.60
2022-11-08T21:34:49.499Z,2.10
2022-11-08T21:37:15.933Z,1.80
2022-11-08T21:39:42.544Z,1.92
2022-11-08T21:42:08.970Z,1.92
2022-11-08T21:44:35.462Z,1.90
2022-11-08T21:47:01.838Z,1.83
2022-11-08T21:49:28.307Z,1.80
2022-11-08T21:51:54.722Z,1.90
2022-11-08T21:54:21.223Z,1.70
2022-11-08T21:56:47.617Z,2.00
2022-11-08T21:59:14.107Z,2.10
2022-11-08T22:01:40.803Z,1.88
2022-11-08T22:04:07.347Z,1.95
2022-11-08T22:06:36.000Z,1.88
2022-11-08T22:09:02.630Z,2.00
2022-11-08T22:11:29.030Z,1.77
2022-11-08T22:13:55.414Z,1.98
2022-11-08T22:16:22.051Z,1.80
2022-11-08T22:19:05.513Z,1.80
2022-11-08T22:21:39.999Z,1.70
2022-11-08T22:24:08.260Z,2.20
2022-11-08T22:26:34.739Z,2.08
2022-11-08T22:29:01.211Z,1.85
2022-11-08T22:31:27.595Z,2.00
2022-11-08T22:33:53.985Z,2.08
2022-11-08T22:36:20.445Z,2.05
2022-11-08T22:38:47.612Z,1.88
2022-11-08T22:41:18.739Z,1.90
2022-11-08T22:43:45.879Z,1.83
2022-11-08T22:46:13.061Z,2.20
2022-11-08T22:48:40.007Z,1.80
2022-11-08T22:51:06.560Z,1.70
2022-11-08T22:53:33.074Z,1.73
2022-11-08T22:56:00.816Z,1.80
2022-11-08T22:58:28.174Z,1.90
2022-11-08T23:00:54.651Z,1.98
2022-11-08T23:03:21.254Z,1.90
2022-11-08T23:05:51.957Z,2.00
2022-11-08T23:08:19.329Z,1.85
2022-11-08T23:11:04.878Z,1.92
2022-11-08T23:13:49.796Z,2.22
2022-11-08T23:16:18.781Z,1.88
2022-11-08T23:19:03.644Z,2.00
2022-11-08T23:21:49.099Z,1.90
2022-11-08T23:24:21.467Z,1.95
2022-11-08T23:27:06.588Z,1.92
2022-11-08T23:29:51.693Z,1.85
2022-11-08T23:32:18.206Z,2.03
2022-11-08T23:34:44.590Z,1.88
2022-11-08T23:37:10.972Z,1.83
2022-11-08T23:39:57.355Z,1.88
2022-11-08T23:42:42.350Z,2.00
2022-11-08T23:45:09.243Z,1.65
2022-11-08T23:47:35.659Z,2.05
2022-11-08T23:50:02.261Z,2.00
2022-11-08T23:52:28.679Z,2.13
2022-11-08T23:54:55.163Z,2.03
2022-11-08T23:57:21.521Z,1.80
2022-11-08T23:59:47.920Z,1.58
